sensor_id;sensor_type;location;lat;lon;timestamp;P1;durP1;ratioP1;P2;durP2;ratioP2
63093;SDS011;49183;51.380;0.098;2022-09-01T00:02:46;6.72;;;3.97;;
63093;SDS011;49183;51.380;0.098;2022-09-01T00:05:47;8.95;;;4.38;;
63093;SDS011;49183;51.380;0.098;2022-09-01T00:11:54;8.52;;;4.55;;
63093;SDS011;49183;51.380;0.098;2022-09-01T00:14:55;10.93;;;3.90;;
63093;SDS011;49183;51.380;0.098;2022-09-01T00:17:57;8.40;;;4.68;;
63093;SDS011;49183;51.380;0.098;2022-09-01T00:20:58;9.38;;;4.18;;
63093;SDS011;49183;51.380;0.098;2022-09-01T00:24:00;9.55;;;4.60;;
63093;SDS011;49183;51.380;0.098;2022-09-01T00:27:01;6.32;;;3.75;;
63093;SDS011;49183;51.380;0.098;2022-09-01T00:30:03;8.27;;;3.70;;
63093;SDS011;49183;51.380;0.098;2022-09-01T00:33:06;6.40;;;3.83;;
63093;SDS011;49183;51.380;0.098;2022-09-01T00:36:07;5.63;;;4.18;;
63093;SDS011;49183;51.380;0.098;2022-09-01T00:39:08;11.68;;;3.90;;
63093;SDS011;49183;51.380;0.098;2022-09-01T00:42:09;6.72;;;4.28;;
63093;SDS011;49183;51.380;0.098;2022-09-01T00:45:10;5.70;;;4.10;;
63093;SDS011;49183;51.380;0.098;2022-09-01T00:48:14;7.43;;;4.32;;
63093;SDS011;49183;51.380;0.098;2022-09-01T00:51:15;6.38;;;3.85;;
63093;SDS011;49183;51.380;0.098;2022-09-01T00:54:18;7.97;;;4.80;;
63093;SDS011;49183;51.380;0.098;2022-09-01T00:57:21;5.22;;;4.28;;
63093;SDS011;49183;51.380;0.098;2022-09-01T01:00:23;5.00;;;4.32;;
63093;SDS011;49183;51.380;0.098;2022-09-01T01:03:34;9.27;;;3.72;;
63093;SDS011;49183;51.380;0.098;2022-09-01T01:06:37;5.85;;;4.53;;
63093;SDS011;49183;51.380;0.098;2022-09-01T01:09:42;5.22;;;4.05;;
63093;SDS011;49183;51.380;0.098;2022-09-01T01:12:44;12.93;;;5.43;;
63093;SDS011;49183;51.380;0.098;2022-09-01T01:15:46;8.23;;;4.82;;
63093;SDS011;49183;51.380;0.098;2022-09-01T01:18:47;8.57;;;5.25;;
63093;SDS011;49183;51.380;0.098;2022-09-01T01:21:48;8.85;;;5.25;;
63093;SDS011;49183;51.380;0.098;2022-09-01T01:25:07;5.85;;;4.47;;
63093;SDS011;49183;51.380;0.098;2022-09-01T01:28:20;4.93;;;4.43;;
63093;SDS011;49183;51.380;0.098;2022-09-01T01:31:29;7.70;;;4.75;;
63093;SDS011;49183;51.380;0.098;2022-09-01T01:34:30;10.85;;;5.90;;
63093;SDS011;49183;51.380;0.098;2022-09-01T01:37:37;5.85;;;4.68;;
63093;SDS011;49183;51.380;0.098;2022-09-01T01:40:41;8.30;;;5.43;;
63093;SDS011;49183;51.380;0.098;2022-09-01T01:43:42;7.15;;;5.13;;
63093;SDS011;49183;51.380;0.098;2022-09-01T01:46:45;7.00;;;4.65;;
63093;SDS011;49183;51.380;0.098;2022-09-01T01:49:49;12.98;;;6.38;;
63093;SDS011;49183;51.380;0.098;2022-09-01T01:52:51;8.90;;;5.63;;
63093;SDS011;49183;51.380;0.098;2022-09-01T01:55:58;9.05;;;5.63;;
63093;SDS011;49183;51.380;0.098;2022-09-01T01:59:01;8.95;;;5.20;;
63093;SDS011;49183;51.380;0.098;2022-09-01T02:02:03;8.70;;;5.35;;
63093;SDS011;49183;51.380;0.098;2022-09-01T02:05:06;7.75;;;5.35;;
63093;SDS011;49183;51.380;0.098;2022-09-01T02:08:13;12.18;;;6.35;;
63093;SDS011;49183;51.380;0.098;2022-09-01T02:11:18;12.00;;;7.10;;
63093;SDS011;49183;51.380;0.098;2022-09-01T02:14:20;15.13;;;5.75;;
63093;SDS011;49183;51.380;0.098;2022-09-01T02:17:22;7.88;;;5.53;;
63093;SDS011;49183;51.380;0.098;2022-09-01T02:20:23;6.68;;;5.50;;
63093;SDS011;49183;51.380;0.098;2022-09-01T02:23:25;9.65;;;5.38;;
63093;SDS011;49183;51.380;0.098;2022-09-01T02:26:28;8.00;;;5.88;;
63093;SDS011;49183;51.380;0.098;2022-09-01T02:29:41;6.22;;;5.63;;
63093;SDS011;49183;51.380;0.098;2022-09-01T02:32:43;7.05;;;5.30;;
63093;SDS011;49183;51.380;0.098;2022-09-01T02:35:45;11.93;;;6.07;;
63093;SDS011;49183;51.380;0.098;2022-09-01T02:38:51;7.60;;;5.25;;
63093;SDS011;49183;51.380;0.098;2022-09-01T02:41:54;6.10;;;5.20;;
63093;SDS011;49183;51.380;0.098;2022-09-01T02:44:55;11.18;;;5.90;;
63093;SDS011;49183;51.380;0.098;2022-09-01T02:47:57;12.60;;;5.30;;
63093;SDS011;49183;51.380;0.098;2022-09-01T02:51:04;10.23;;;5.90;;
63093;SDS011;49183;51.380;0.098;2022-09-01T02:54:11;9.00;;;5.82;;
63093;SDS011;49183;51.380;0.098;2022-09-01T02:57:11;9.88;;;5.78;;
63093;SDS011;49183;51.380;0.098;2022-09-01T03:00:14;9.40;;;6.10;;
63093;SDS011;49183;51.380;0.098;2022-09-01T03:03:22;9.77;;;5.68;;
63093;SDS011;49183;51.380;0.098;2022-09-01T03:06:24;11.35;;;7.47;;
63093;SDS011;49183;51.380;0.098;2022-09-01T03:09:26;8.18;;;6.40;;
63093;SDS011;49183;51.380;0.098;2022-09-01T03:12:27;7.57;;;6.53;;
63093;SDS011;49183;51.380;0.098;2022-09-01T03:15:28;11.50;;;7.40;;
63093;SDS011;49183;51.380;0.098;2022-09-01T03:18:29;10.82;;;7.45;;
63093;SDS011;49183;51.380;0.098;2022-09-01T03:21:30;8.10;;;7.13;;
63093;SDS011;49183;51.380;0.098;2022-09-01T03:24:35;9.40;;;8.35;;
63093;SDS011;49183;51.380;0.098;2022-09-01T03:27:36;13.52;;;8.48;;
63093;SDS011;49183;51.380;0.098;2022-09-01T03:30:38;10.48;;;9.38;;
63093;SDS011;49183;51.380;0.098;2022-09-01T03:33:44;14.80;;;9.48;;
63093;SDS011;49183;51.380;0.098;2022-09-01T03:36:49;11.25;;;8.75;;
63093;SDS011;49183;51.380;0.098;2022-09-01T03:39:50;13.35;;;9.90;;
63093;SDS011;49183;51.380;0.098;2022-09-01T03:42:53;17.15;;;9.40;;
63093;SDS011;49183;51.380;0.098;2022-09-01T03:45:55;13.40;;;10.32;;
63093;SDS011;49183;51.380;0.098;2022-09-01T03:48:58;10.20;;;9.13;;
63093;SDS011;49183;51.380;0.098;2022-09-01T03:52:00;10.38;;;9.38;;
63093;SDS011;49183;51.380;0.098;2022-09-01T03:55:01;13.25;;;9.20;;
63093;SDS011;49183;51.380;0.098;2022-09-01T03:58:03;12.93;;;9.35;;
63093;SDS011;49183;51.380;0.098;2022-09-01T04:01:13;11.35;;;9.32;;
63093;SDS011;49183;51.380;0.098;2022-09-01T04:04:14;16.38;;;8.50;;
63093;SDS011;49183;51.380;0.098;2022-09-01T04:07:15;11.18;;;9.13;;
63093;SDS011;49183;51.380;0.098;2022-09-01T04:10:16;11.45;;;9.40;;
63093;SDS011;49183;51.380;0.098;2022-09-01T04:13:20;12.85;;;10.05;;
63093;SDS011;49183;51.380;0.098;2022-09-01T04:16:29;10.88;;;8.20;;
63093;SDS011;49183;51.380;0.098;2022-09-01T04:19:49;9.48;;;8.25;;
63093;SDS011;49183;51.380;0.098;2022-09-01T04:22:50;9.68;;;7.68;;
63093;SDS011;49183;51.380;0.098;2022-09-01T04:25:52;11.45;;;8.80;;
63093;SDS011;49183;51.380;0.098;2022-09-01T04:29:01;15.75;;;8.60;;
63093;SDS011;49183;51.380;0.098;2022-09-01T04:32:05;8.18;;;6.95;;
63093;SDS011;49183;51.380;0.098;2022-09-01T04:35:11;12.02;;;7.60;;
63093;SDS011;49183;51.380;0.098;2022-09-01T04:38:13;7.80;;;6.60;;
63093;SDS011;49183;51.380;0.098;2022-09-01T04:41:14;9.27;;;7.15;;
63093;SDS011;49183;51.380;0.098;2022-09-01T04:44:17;8.38;;;7.07;;
63093;SDS011;49183;51.380;0.098;2022-09-01T04:47:18;11.48;;;6.25;;
63093;SDS011;49183;51.380;0.098;2022-09-01T04:50:26;7.40;;;6.72;;
63093;SDS011;49183;51.380;0.098;2022-09-01T04:53:32;6.80;;;6.13;;
63093;SDS011;49183;51.380;0.098;2022-09-01T04:56:33;11.50;;;6.90;;
63093;SDS011;49183;51.380;0.098;2022-09-01T04:59:35;7.47;;;6.57;;
63093;SDS011;49183;51.380;0.098;2022-09-01T05:02:36;10.80;;;6.05;;
63093;SDS011;49183;51.380;0.098;2022-09-01T05:05:40;9.77;;;6.43;;
63093;SDS011;49183;51.380;0.098;2022-09-01T05:08:43;7.25;;;6.55;;
63093;SDS011;49183;51.380;0.098;2022-09-01T05:12:10;9.45;;;6.88;;
63093;SDS011;49183;51.380;0.098;2022-09-01T05:15:15;7.20;;;6.45;;
63093;SDS011;49183;51.380;0.098;2022-09-01T05:18:16;7.28;;;6.57;;
63093;SDS011;49183;51.380;0.098;2022-09-01T05:21:21;9.20;;;7.28;;
63093;SDS011;49183;51.380;0.098;2022-09-01T05:24:24;10.02;;;6.32;;
63093;SDS011;49183;51.380;0.098;2022-09-01T05:27:27;7.63;;;6.53;;
63093;SDS011;49183;51.380;0.098;2022-09-01T05:30:29;13.50;;;6.45;;
63093;SDS011;49183;51.380;0.098;2022-09-01T05:33:32;9.25;;;6.05;;
63093;SDS011;49183;51.380;0.098;2022-09-01T05:36:43;10.70;;;7.05;;
63093;SDS011;49183;51.380;0.098;2022-09-01T05:39:44;11.65;;;6.32;;
63093;SDS011;49183;51.380;0.098;2022-09-01T05:42:45;9.38;;;6.95;;
63093;SDS011;49183;51.380;0.098;2022-09-01T05:45:48;7.32;;;6.05;;
63093;SDS011;49183;51.380;0.098;2022-09-01T05:48:53;9.57;;;6.22;;
63093;SDS011;49183;51.380;0.098;2022-09-01T05:51:56;7.28;;;5.70;;
63093;SDS011;49183;51.380;0.098;2022-09-01T05:54:57;10.27;;;5.90;;
63093;SDS011;49183;51.380;0.098;2022-09-01T05:58:02;10.02;;;6.13;;
63093;SDS011;49183;51.380;0.098;2022-09-01T06:01:06;10.02;;;5.75;;
63093;SDS011;49183;51.380;0.098;2022-09-01T06:04:07;9.02;;;5.47;;
63093;SDS011;49183;51.380;0.098;2022-09-01T06:07:15;8.60;;;5.18;;
63093;SDS011;49183;51.380;0.098;2022-09-01T06:10:16;8.15;;;5.72;;
63093;SDS011;49183;51.380;0.098;2022-09-01T06:13:18;8.70;;;5.70;;
63093;SDS011;49183;51.380;0.098;2022-09-01T06:16:20;8.02;;;4.90;;
63093;SDS011;49183;51.380;0.098;2022-09-01T06:19:24;9.73;;;5.95;;
63093;SDS011;49183;51.380;0.098;2022-09-01T06:22:26;7.40;;;4.78;;
63093;SDS011;49183;51.380;0.098;2022-09-01T06:25:29;7.30;;;4.43;;
63093;SDS011;49183;51.380;0.098;2022-09-01T06:28:32;4.75;;;4.28;;
63093;SDS011;49183;51.380;0.098;2022-09-01T06:31:34;6.97;;;4.53;;
63093;SDS011;49183;51.380;0.098;2022-09-01T06:34:39;4.70;;;3.70;;
63093;SDS011;49183;51.380;0.098;2022-09-01T06:37:43;4.75;;;3.33;;
63093;SDS011;49183;51.380;0.098;2022-09-01T06:40:58;6.18;;;3.58;;
63093;SDS011;49183;51.380;0.098;2022-09-01T06:44:05;8.85;;;3.95;;
63093;SDS011;49183;51.380;0.098;2022-09-01T06:47:13;8.43;;;3.03;;
63093;SDS011;49183;51.380;0.098;2022-09-01T06:50:15;6.32;;;2.95;;
63093;SDS011;49183;51.380;0.098;2022-09-01T06:53:37;4.95;;;2.88;;
63093;SDS011;49183;51.380;0.098;2022-09-01T06:56:43;4.28;;;2.67;;
63093;SDS011;49183;51.380;0.098;2022-09-01T06:59:46;9.43;;;3.35;;
63093;SDS011;49183;51.380;0.098;2022-09-01T07:02:47;5.75;;;3.15;;
63093;SDS011;49183;51.380;0.098;2022-09-01T07:06:08;4.78;;;2.70;;
63093;SDS011;49183;51.380;0.098;2022-09-01T07:09:51;5.50;;;2.35;;
63093;SDS011;49183;51.380;0.098;2022-09-01T07:13:20;7.30;;;3.13;;
63093;SDS011;49183;51.380;0.098;2022-09-01T07:16:25;6.40;;;1.85;;
63093;SDS011;49183;51.380;0.098;2022-09-01T07:19:39;5.13;;;2.30;;
63093;SDS011;49183;51.380;0.098;2022-09-01T07:22:41;4.63;;;2.67;;
63093;SDS011;49183;51.380;0.098;2022-09-01T07:25:52;7.22;;;2.53;;
63093;SDS011;49183;51.380;0.098;2022-09-01T07:28:53;6.93;;;2.15;;
63093;SDS011;49183;51.380;0.098;2022-09-01T07:31:58;7.82;;;2.15;;
63093;SDS011;49183;51.380;0.098;2022-09-01T07:35:20;3.58;;;1.85;;
63093;SDS011;49183;51.380;0.098;2022-09-01T07:38:25;2.78;;;1.27;;
63093;SDS011;49183;51.380;0.098;2022-09-01T07:41:47;2.45;;;1.48;;
63093;SDS011;49183;51.380;0.098;2022-09-01T07:45:37;4.60;;;1.35;;
63093;SDS011;49183;51.380;0.098;2022-09-01T07:48:59;3.75;;;1.75;;
63093;SDS011;49183;51.380;0.098;2022-09-01T07:52:21;2.45;;;1.73;;
63093;SDS011;49183;51.380;0.098;2022-09-01T07:55:23;2.60;;;1.55;;
63093;SDS011;49183;51.380;0.098;2022-09-01T07:58:25;3.85;;;1.38;;
63093;SDS011;49183;51.380;0.098;2022-09-01T08:01:28;4.82;;;1.35;;
63093;SDS011;49183;51.380;0.098;2022-09-01T08:04:29;3.83;;;1.40;;
63093;SDS011;49183;51.380;0.098;2022-09-01T08:07:31;5.18;;;1.60;;
63093;SDS011;49183;51.380;0.098;2022-09-01T08:10:44;3.08;;;1.27;;
63093;SDS011;49183;51.380;0.098;2022-09-01T08:13:53;7.18;;;1.52;;
63093;SDS011;49183;51.380;0.098;2022-09-01T08:16:51;4.38;;;1.30;;
63093;SDS011;49183;51.380;0.098;2022-09-01T08:20:16;3.80;;;1.50;;
63093;SDS011;49183;51.380;0.098;2022-09-01T08:23:34;6.07;;;1.70;;
63093;SDS011;49183;51.380;0.098;2022-09-01T08:26:35;3.22;;;1.17;;
63093;SDS011;49183;51.380;0.098;2022-09-01T08:29:36;2.95;;;1.13;;
63093;SDS011;49183;51.380;0.098;2022-09-01T08:32:37;3.55;;;1.30;;
63093;SDS011;49183;51.380;0.098;2022-09-01T08:35:43;4.45;;;1.10;;
63093;SDS011;49183;51.380;0.098;2022-09-01T08:38:50;3.05;;;0.73;;
63093;SDS011;49183;51.380;0.098;2022-09-01T08:45:32;3.30;;;1.00;;
63093;SDS011;49183;51.380;0.098;2022-09-01T08:48:38;2.08;;;0.95;;
63093;SDS011;49183;51.380;0.098;2022-09-01T08:52:46;3.50;;;1.27;;
63093;SDS011;49183;51.380;0.098;2022-09-01T08:55:59;2.85;;;0.90;;
63093;SDS011;49183;51.380;0.098;2022-09-01T08:59:00;3.33;;;1.00;;
63093;SDS011;49183;51.380;0.098;2022-09-01T09:09:18;2.95;;;1.08;;
63093;SDS011;49183;51.380;0.098;2022-09-01T09:16:40;2.65;;;1.00;;
63093;SDS011;49183;51.380;0.098;2022-09-01T09:19:45;3.28;;;1.08;;
63093;SDS011;49183;51.380;0.098;2022-09-01T09:22:47;5.57;;;1.05;;
63093;SDS011;49183;51.380;0.098;2022-09-01T09:25:50;4.30;;;0.90;;
63093;SDS011;49183;51.380;0.098;2022-09-01T09:28:54;5.40;;;1.05;;
63093;SDS011;49183;51.380;0.098;2022-09-01T09:32:05;4.32;;;1.08;;
63093;SDS011;49183;51.380;0.098;2022-09-01T09:35:35;2.65;;;0.73;;
63093;SDS011;49183;51.380;0.098;2022-09-01T09:38:42;6.65;;;0.90;;
63093;SDS011;49183;51.380;0.098;2022-09-01T09:41:43;4.20;;;1.00;;
63093;SDS011;49183;51.380;0.098;2022-09-01T09:45:27;2.47;;;0.77;;
63093;SDS011;49183;51.380;0.098;2022-09-01T09:48:30;0.95;;;0.50;;
63093;SDS011;49183;51.380;0.098;2022-09-01T09:51:31;2.95;;;0.85;;
63093;SDS011;49183;51.380;0.098;2022-09-01T09:54:32;3.42;;;0.85;;
63093;SDS011;49183;51.380;0.098;2022-09-01T09:57:39;2.08;;;1.00;;
63093;SDS011;49183;51.380;0.098;2022-09-01T10:00:42;4.15;;;1.20;;
63093;SDS011;49183;51.380;0.098;2022-09-01T10:07:53;5.85;;;0.90;;
63093;SDS011;49183;51.380;0.098;2022-09-01T10:10:56;3.70;;;1.10;;
63093;SDS011;49183;51.380;0.098;2022-09-01T10:13:57;3.33;;;1.15;;
63093;SDS011;49183;51.380;0.098;2022-09-01T10:17:10;1.45;;;0.82;;
63093;SDS011;49183;51.380;0.098;2022-09-01T10:20:19;5.03;;;0.75;;
63093;SDS011;49183;51.380;0.098;2022-09-01T10:23:23;3.72;;;0.65;;
63093;SDS011;49183;51.380;0.098;2022-09-01T10:26:31;3.40;;;0.77;;
63093;SDS011;49183;51.380;0.098;2022-09-01T10:29:40;5.15;;;0.93;;
63093;SDS011;49183;51.380;0.098;2022-09-01T10:33:06;2.28;;;0.70;;
63093;SDS011;49183;51.380;0.098;2022-09-01T10:36:08;1.98;;;0.60;;
63093;SDS011;49183;51.380;0.098;2022-09-01T10:39:10;1.75;;;0.77;;
63093;SDS011;49183;51.380;0.098;2022-09-01T10:42:20;1.95;;;0.50;;
63093;SDS011;49183;51.380;0.098;2022-09-01T10:48:45;2.70;;;0.63;;
63093;SDS011;49183;51.380;0.098;2022-09-01T10:51:50;1.27;;;0.50;;
63093;SDS011;49183;51.380;0.098;2022-09-01T10:55:00;3.00;;;0.88;;
63093;SDS011;49183;51.380;0.098;2022-09-01T11:02:09;3.22;;;1.02;;
63093;SDS011;49183;51.380;0.098;2022-09-01T11:05:22;3.80;;;0.65;;
63093;SDS011;49183;51.380;0.098;2022-09-01T11:17:58;3.17;;;0.60;;
63093;SDS011;49183;51.380;0.098;2022-09-01T11:21:13;5.65;;;1.10;;
63093;SDS011;49183;51.380;0.098;2022-09-01T11:27:58;4.10;;;0.70;;
63093;SDS011;49183;51.380;0.098;2022-09-01T11:34:09;4.95;;;1.02;;
63093;SDS011;49183;51.380;0.098;2022-09-01T11:37:17;1.98;;;0.85;;
63093;SDS011;49183;51.380;0.098;2022-09-01T11:40:23;2.45;;;0.77;;
63093;SDS011;49183;51.380;0.098;2022-09-01T11:43:27;2.88;;;0.70;;
63093;SDS011;49183;51.380;0.098;2022-09-01T11:46:33;1.05;;;0.57;;
63093;SDS011;49183;51.380;0.098;2022-09-01T11:49:36;2.95;;;0.70;;
63093;SDS011;49183;51.380;0.098;2022-09-01T11:56:11;3.88;;;1.13;;
63093;SDS011;49183;51.380;0.098;2022-09-01T11:59:28;2.17;;;0.57;;
63093;SDS011;49183;51.380;0.098;2022-09-01T12:02:35;5.25;;;0.95;;
63093;SDS011;49183;51.380;0.098;2022-09-01T12:05:47;2.17;;;0.75;;
63093;SDS011;49183;51.380;0.098;2022-09-01T12:08:55;3.88;;;1.00;;
63093;SDS011;49183;51.380;0.098;2022-09-01T12:11:58;1.85;;;0.47;;
63093;SDS011;49183;51.380;0.098;2022-09-01T12:15:00;4.13;;;0.77;;
63093;SDS011;49183;51.380;0.098;2022-09-01T12:18:08;3.88;;;0.88;;
63093;SDS011;49183;51.380;0.098;2022-09-01T12:21:28;3.17;;;1.15;;
63093;SDS011;49183;51.380;0.098;2022-09-01T12:24:38;4.22;;;0.88;;
63093;SDS011;49183;51.380;0.098;2022-09-01T12:27:45;3.63;;;0.90;;
63093;SDS011;49183;51.380;0.098;2022-09-01T12:30:46;4.45;;;1.10;;
63093;SDS011;49183;51.380;0.098;2022-09-01T12:33:48;3.97;;;0.70;;
63093;SDS011;49183;51.380;0.098;2022-09-01T12:40:30;5.77;;;1.17;;
63093;SDS011;49183;51.380;0.098;2022-09-01T12:43:36;5.63;;;0.70;;
63093;SDS011;49183;51.380;0.098;2022-09-01T12:46:43;4.75;;;0.82;;
63093;SDS011;49183;51.380;0.098;2022-09-01T12:49:45;7.43;;;0.88;;
63093;SDS011;49183;51.380;0.098;2022-09-01T12:52:53;8.85;;;1.02;;
63093;SDS011;49183;51.380;0.098;2022-09-01T12:59:09;3.10;;;0.80;;
63093;SDS011;49183;51.380;0.098;2022-09-01T13:02:27;1.27;;;0.63;;
63093;SDS011;49183;51.380;0.098;2022-09-01T13:05:35;5.30;;;0.90;;
63093;SDS011;49183;51.380;0.098;2022-09-01T13:08:39;1.35;;;0.60;;
63093;SDS011;49183;51.380;0.098;2022-09-01T13:11:40;6.25;;;0.60;;
63093;SDS011;49183;51.380;0.098;2022-09-01T13:14:55;1.23;;;0.68;;
63093;SDS011;49183;51.380;0.098;2022-09-01T13:17:56;3.13;;;0.85;;
63093;SDS011;49183;51.380;0.098;2022-09-01T13:20:58;2.17;;;0.98;;
63093;SDS011;49183;51.380;0.098;2022-09-01T13:24:00;2.60;;;0.90;;
63093;SDS011;49183;51.380;0.098;2022-09-01T13:27:03;5.65;;;0.80;;
63093;SDS011;49183;51.380;0.098;2022-09-01T13:30:07;2.13;;;1.05;;
63093;SDS011;49183;51.380;0.098;2022-09-01T13:33:47;1.48;;;0.60;;
63093;SDS011;49183;51.380;0.098;2022-09-01T13:37:10;2.88;;;1.38;;
63093;SDS011;49183;51.380;0.098;2022-09-01T13:40:41;1.80;;;0.63;;
63093;SDS011;49183;51.380;0.098;2022-09-01T13:44:03;2.63;;;0.90;;
63093;SDS011;49183;51.380;0.098;2022-09-01T13:47:13;4.78;;;0.80;;
63093;SDS011;49183;51.380;0.098;2022-09-01T13:50:20;4.13;;;0.52;;
63093;SDS011;49183;51.380;0.098;2022-09-01T13:53:42;4.30;;;0.75;;
63093;SDS011;49183;51.380;0.098;2022-09-01T13:56:43;3.47;;;0.70;;
63093;SDS011;49183;51.380;0.098;2022-09-01T13:59:47;1.45;;;0.65;;
63093;SDS011;49183;51.380;0.098;2022-09-01T14:02:51;3.22;;;1.60;;
63093;SDS011;49183;51.380;0.098;2022-09-01T14:05:52;2.55;;;0.75;;
63093;SDS011;49183;51.380;0.098;2022-09-01T14:08:53;2.22;;;0.70;;
63093;SDS011;49183;51.380;0.098;2022-09-01T14:12:16;3.75;;;1.60;;
63093;SDS011;49183;51.380;0.098;2022-09-01T14:15:29;1.95;;;0.70;;
63093;SDS011;49183;51.380;0.098;2022-09-01T14:18:34;3.45;;;0.77;;
63093;SDS011;49183;51.380;0.098;2022-09-01T14:21:35;3.90;;;1.00;;
63093;SDS011;49183;51.380;0.098;2022-09-01T14:24:55;1.75;;;0.50;;
63093;SDS011;49183;51.380;0.098;2022-09-01T14:28:07;4.07;;;0.85;;
63093;SDS011;49183;51.380;0.098;2022-09-01T14:31:22;1.27;;;0.60;;
63093;SDS011;49183;51.380;0.098;2022-09-01T14:34:25;2.95;;;1.10;;
63093;SDS011;49183;51.380;0.098;2022-09-01T14:37:45;1.55;;;0.70;;
63093;SDS011;49183;51.380;0.098;2022-09-01T14:41:46;3.63;;;1.02;;
63093;SDS011;49183;51.380;0.098;2022-09-01T14:45:03;5.53;;;0.80;;
63093;SDS011;49183;51.380;0.098;2022-09-01T14:48:14;4.78;;;0.90;;
63093;SDS011;49183;51.380;0.098;2022-09-01T14:51:25;1.80;;;0.70;;
63093;SDS011;49183;51.380;0.098;2022-09-01T14:54:52;2.53;;;0.63;;
63093;SDS011;49183;51.380;0.098;2022-09-01T14:58:05;3.33;;;0.88;;
63093;SDS011;49183;51.380;0.098;2022-09-01T15:01:27;3.53;;;0.85;;
63093;SDS011;49183;51.380;0.098;2022-09-01T15:04:31;1.58;;;0.60;;
63093;SDS011;49183;51.380;0.098;2022-09-01T15:10:48;2.80;;;0.82;;
63093;SDS011;49183;51.380;0.098;2022-09-01T15:13:57;1.65;;;0.80;;
63093;SDS011;49183;51.380;0.098;2022-09-01T15:17:01;3.65;;;0.70;;
63093;SDS011;49183;51.380;0.098;2022-09-01T15:20:06;4.03;;;0.63;;
63093;SDS011;49183;51.380;0.098;2022-09-01T15:23:31;2.42;;;0.52;;
63093;SDS011;49183;51.380;0.098;2022-09-01T15:26:36;3.47;;;0.90;;
63093;SDS011;49183;51.380;0.098;2022-09-01T15:29:42;4.18;;;0.60;;
63093;SDS011;49183;51.380;0.098;2022-09-01T15:32:53;3.00;;;0.80;;
63093;SDS011;49183;51.380;0.098;2022-09-01T15:36:03;4.40;;;0.82;;
63093;SDS011;49183;51.380;0.098;2022-09-01T15:39:07;6.72;;;1.10;;
63093;SDS011;49183;51.380;0.098;2022-09-01T15:42:33;2.78;;;0.77;;
63093;SDS011;49183;51.380;0.098;2022-09-01T15:45:35;3.70;;;0.95;;
63093;SDS011;49183;51.380;0.098;2022-09-01T15:48:46;6.30;;;1.17;;
63093;SDS011;49183;51.380;0.098;2022-09-01T15:52:18;3.22;;;0.82;;
63093;SDS011;49183;51.380;0.098;2022-09-01T15:55:41;6.80;;;1.35;;
63093;SDS011;49183;51.380;0.098;2022-09-01T15:58:48;3.30;;;0.75;;
63093;SDS011;49183;51.380;0.098;2022-09-01T16:01:52;2.80;;;0.90;;
63093;SDS011;49183;51.380;0.098;2022-09-01T16:04:53;2.33;;;0.80;;
63093;SDS011;49183;51.380;0.098;2022-09-01T16:07:54;6.60;;;2.10;;
63093;SDS011;49183;51.380;0.098;2022-09-01T16:11:45;2.85;;;0.70;;
63093;SDS011;49183;51.380;0.098;2022-09-01T16:15:13;2.80;;;0.90;;
63093;SDS011;49183;51.380;0.098;2022-09-01T16:18:24;1.00;;;0.40;;
63093;SDS011;49183;51.380;0.098;2022-09-01T16:25:07;1.77;;;0.80;;
63093;SDS011;49183;51.380;0.098;2022-09-01T16:28:28;1.80;;;0.80;;
63093;SDS011;49183;51.380;0.098;2022-09-01T16:31:34;3.42;;;1.00;;
63093;SDS011;49183;51.380;0.098;2022-09-01T16:35:03;5.03;;;1.40;;
63093;SDS011;49183;51.380;0.098;2022-09-01T16:38:35;2.50;;;0.73;;
63093;SDS011;49183;51.380;0.098;2022-09-01T16:46:21;2.72;;;0.88;;
63093;SDS011;49183;51.380;0.098;2022-09-01T16:56:14;3.80;;;1.58;;
63093;SDS011;49183;51.380;0.098;2022-09-01T16:59:28;2.00;;;0.80;;
63093;SDS011;49183;51.380;0.098;2022-09-01T17:03:10;3.45;;;1.27;;
63093;SDS011;49183;51.380;0.098;2022-09-01T17:07:06;8.38;;;1.08;;
63093;SDS011;49183;51.380;0.098;2022-09-01T17:13:32;3.05;;;0.80;;
63093;SDS011;49183;51.380;0.098;2022-09-01T17:16:40;1.35;;;0.60;;
63093;SDS011;49183;51.380;0.098;2022-09-01T17:19:43;3.35;;;0.80;;
63093;SDS011;49183;51.380;0.098;2022-09-01T17:22:50;3.53;;;1.08;;
63093;SDS011;49183;51.380;0.098;2022-09-01T17:25:54;4.82;;;1.17;;
63093;SDS011;49183;51.380;0.098;2022-09-01T17:29:25;2.97;;;1.00;;
63093;SDS011;49183;51.380;0.098;2022-09-01T17:36:14;6.07;;;1.27;;
63093;SDS011;49183;51.380;0.098;2022-09-01T17:39:30;2.78;;;0.77;;
63093;SDS011;49183;51.380;0.098;2022-09-01T17:49:20;2.35;;;0.77;;
63093;SDS011;49183;51.380;0.098;2022-09-01T17:55:59;2.95;;;1.08;;
63093;SDS011;49183;51.380;0.098;2022-09-01T18:09:54;2.28;;;0.80;;
63093;SDS011;49183;51.380;0.098;2022-09-01T18:13:01;7.53;;;1.50;;
63093;SDS011;49183;51.380;0.098;2022-09-01T18:16:27;5.10;;;1.02;;
63093;SDS011;49183;51.380;0.098;2022-09-01T18:19:37;3.33;;;1.17;;
63093;SDS011;49183;51.380;0.098;2022-09-01T18:22:41;4.78;;;0.93;;
63093;SDS011;49183;51.380;0.098;2022-09-01T18:25:54;4.93;;;1.52;;
63093;SDS011;49183;51.380;0.098;2022-09-01T18:29:03;3.72;;;1.20;;
63093;SDS011;49183;51.380;0.098;2022-09-01T18:32:33;4.35;;;1.02;;
63093;SDS011;49183;51.380;0.098;2022-09-01T18:36:20;6.35;;;1.48;;
63093;SDS011;49183;51.380;0.098;2022-09-01T18:56:27;2.85;;;1.20;;
63093;SDS011;49183;51.380;0.098;2022-09-01T19:00:05;3.33;;;1.30;;
63093;SDS011;49183;51.380;0.098;2022-09-01T19:07:17;2.97;;;1.15;;
63093;SDS011;49183;51.380;0.098;2022-09-01T19:20:38;3.05;;;1.30;;
63093;SDS011;49183;51.380;0.098;2022-09-01T19:23:43;4.40;;;1.73;;
63093;SDS011;49183;51.380;0.098;2022-09-01T19:27:09;3.88;;;1.30;;
63093;SDS011;49183;51.380;0.098;2022-09-01T19:30:14;8.02;;;1.38;;
63093;SDS011;49183;51.380;0.098;2022-09-01T19:33:16;7.63;;;1.52;;
63093;SDS011;49183;51.380;0.098;2022-09-01T19:36:58;3.70;;;1.27;;
63093;SDS011;49183;51.380;0.098;2022-09-01T19:39:55;3.63;;;1.23;;
63093;SDS011;49183;51.380;0.098;2022-09-01T19:49:47;5.18;;;1.20;;
63093;SDS011;49183;51.380;0.098;2022-09-01T19:53:06;2.10;;;0.88;;
63093;SDS011;49183;51.380;0.098;2022-09-01T19:56:14;3.38;;;1.40;;
63093;SDS011;49183;51.380;0.098;2022-09-01T20:02:22;4.35;;;1.60;;
63093;SDS011;49183;51.380;0.098;2022-09-01T20:08:52;5.75;;;1.80;;
63093;SDS011;49183;51.380;0.098;2022-09-01T20:15:22;3.13;;;1.20;;
63093;SDS011;49183;51.380;0.098;2022-09-01T20:18:37;3.90;;;1.13;;
63093;SDS011;49183;51.380;0.098;2022-09-01T20:21:45;2.78;;;1.25;;
63093;SDS011;49183;51.380;0.098;2022-09-01T20:24:47;6.00;;;1.60;;
63093;SDS011;49183;51.380;0.098;2022-09-01T20:31:51;3.60;;;1.80;;
63093;SDS011;49183;51.380;0.098;2022-09-01T20:34:49;2.33;;;1.10;;
63093;SDS011;49183;51.380;0.098;2022-09-01T20:37:58;3.67;;;1.45;;
63093;SDS011;49183;51.380;0.098;2022-09-01T20:41:28;7.10;;;1.45;;
63093;SDS011;49183;51.380;0.098;2022-09-01T20:44:43;4.25;;;1.48;;
63093;SDS011;49183;51.380;0.098;2022-09-01T20:47:53;3.90;;;1.20;;
63093;SDS011;49183;51.380;0.098;2022-09-01T20:54:19;7.35;;;1.48;;
63093;SDS011;49183;51.380;0.098;2022-09-01T21:00:32;6.43;;;1.10;;
63093;SDS011;49183;51.380;0.098;2022-09-01T21:14:18;1.70;;;0.98;;
63093;SDS011;49183;51.380;0.098;2022-09-01T21:21:00;5.85;;;1.25;;
63093;SDS011;49183;51.380;0.098;2022-09-01T21:24:06;4.47;;;1.30;;
63093;SDS011;49183;51.380;0.098;2022-09-01T21:27:12;2.05;;;1.20;;
63093;SDS011;49183;51.380;0.098;2022-09-01T21:30:16;4.68;;;1.67;;
63093;SDS011;49183;51.380;0.098;2022-09-01T21:33:22;3.15;;;1.30;;
63093;SDS011;49183;51.380;0.098;2022-09-01T21:36:24;5.72;;;1.63;;
63093;SDS011;49183;51.380;0.098;2022-09-01T21:39:29;5.57;;;1.30;;
63093;SDS011;49183;51.380;0.098;2022-09-01T21:42:47;4.03;;;1.40;;
63093;SDS011;49183;51.380;0.098;2022-09-01T21:45:57;3.67;;;2.00;;
63093;SDS011;49183;51.380;0.098;2022-09-01T21:49:09;2.97;;;1.23;;